Time;durP1;ratioP1;P1;durP2;ratioP2;P2;SDS_P1;SDS_P2;PMS_P1;PMS_P2;Temp;Humidity;BMP_temperature;BMP_pressure;BME280_temperature;BME280_humidity;BME280_pressure;Samples;Min_cycle;Max_cycle;Signal;HPM_P1;HPM_P2
2021/07/23 00:00:03;;;;;;;5.05;4.43;;;20.50;99.90;;;;;;5087667;28;20205;-68
2021/07/23 00:02:31;;;;;;;4.95;4.30;;;20.50;99.90;;;;;;5061910;28;20236;-67
2021/07/23 00:04:58;;;;;;;6.22;4.45;;;20.50;99.90;;;;;;5057451;28;20194;-67
2021/07/23 00:07:25;;;;;;;4.93;4.40;;;20.50;99.90;;;;;;5057662;28;20573;-67
2021/07/23 00:09:52;;;;;;;6.22;4.85;;;20.50;99.90;;;;;;5085409;28;20200;-68
2021/07/23 00:12:20;;;;;;;5.03;4.25;;;20.40;99.90;;;;;;5066489;28;20233;-67
2021/07/23 00:14:47;;;;;;;4.68;4.15;;;20.40;99.90;;;;;;5070773;28;20388;-67
2021/07/23 00:17:14;;;;;;;5.75;4.07;;;20.40;99.90;;;;;;5102504;28;20209;-67
2021/07/23 00:19:42;;;;;;;5.03;4.55;;;20.40;99.90;;;;;;5063771;28;20232;-67
2021/07/23 00:22:09;;;;;;;5.07;4.57;;;20.40;99.90;;;;;;5102969;28;20204;-68
2021/07/23 00:24:36;;;;;;;5.32;4.50;;;20.30;99.90;;;;;;5102429;28;20617;-68
2021/07/23 00:27:03;;;;;;;5.07;4.57;;;20.30;99.90;;;;;;5102909;28;20193;-68
2021/07/23 00:29:32;;;;;;;5.95;4.80;;;20.30;99.90;;;;;;5063105;28;20221;-68
2021/07/23 00:31:59;;;;;;;6.35;5.22;;;20.30;99.90;;;;;;5064574;28;20671;-68
2021/07/23 00:34:26;;;;;;;5.47;4.38;;;20.30;99.90;;;;;;5068055;28;20703;-68
2021/07/23 00:36:53;;;;;;;5.97;5.13;;;20.20;99.90;;;;;;5069218;28;20267;-68
2021/07/23 00:39:20;;;;;;;7.63;5.00;;;20.20;99.90;;;;;;5102736;28;20227;-68
2021/07/23 00:41:47;;;;;;;7.63;4.82;;;20.80;99.90;;;;;;5102084;28;20541;-68
2021/07/23 00:44:14;;;;;;;5.53;4.47;;;20.20;99.90;;;;;;5070120;28;20656;-68
2021/07/23 00:46:47;;;;;;;10.60;4.78;;;20.10;99.90;;;;;;5082601;28;20226;-68
2021/07/23 00:49:15;;;;;;;5.68;4.80;;;20.10;99.90;;;;;;5061077;28;20213;-69
2021/07/23 00:51:42;;;;;;;5.97;4.75;;;20.60;99.90;;;;;;5068816;28;20227;-69
2021/07/23 00:54:11;;;;;;;6.72;4.70;;;20.00;99.90;;;;;;5068459;28;20607;-68
2021/07/23 00:56:38;;;;;;;5.03;4.53;;;20.00;99.90;;;;;;5068290;28;20197;-68
2021/07/23 00:59:06;;;;;;;5.45;4.57;;;19.90;99.90;;;;;;5067317;28;20276;-68
2021/07/23 01:01:33;;;;;;;9.23;4.38;;;19.90;99.90;;;;;;5067057;28;20573;-68
2021/07/23 01:04:02;;;;;;;4.88;4.40;;;19.80;99.90;;;;;;5085275;28;20282;-68
2021/07/23 01:06:31;;;;;;;5.43;4.60;;;19.80;99.90;;;;;;5065267;28;20566;-68
2021/07/23 01:08:58;;;;;;;5.90;4.75;;;19.80;99.90;;;;;;5060340;28;20212;-68
2021/07/23 01:11:26;;;;;;;5.45;4.65;;;19.80;99.90;;;;;;5062885;28;20604;-68
2021/07/23 01:14:17;;;;;;;9.35;5.00;;;19.70;99.90;;;;;;5022618;28;20304;-68
2021/07/23 01:16:45;;;;;;;4.55;4.15;;;19.70;99.90;;;;;;5026870;28;20301;-68
2021/07/23 01:19:16;;;;;;;7.10;4.60;;;19.70;99.90;;;;;;5042035;28;20374;-68
2021/07/23 01:21:49;;;;;;;5.88;4.90;;;19.70;99.90;;;;;;5027134;28;20245;-68
2021/07/23 01:24:18;;;;;;;5.93;4.38;;;19.70;99.90;;;;;;5043320;28;20202;-69
2021/07/23 01:26:49;;;;;;;6.35;4.20;;;19.60;99.90;;;;;;5027405;28;20206;-68
2021/07/23 01:29:22;;;;;;;6.25;4.90;;;19.80;99.90;;;;;;5043697;28;20623;-68
2021/07/23 01:31:50;;;;;;;5.13;4.50;;;19.60;99.90;;;;;;5026782;28;20341;-68
2021/07/23 01:34:17;;;;;;;6.47;4.75;;;19.50;99.90;;;;;;5025504;28;20651;-68
2021/07/23 01:36:44;;;;;;;4.85;4.38;;;19.50;99.90;;;;;;5026698;28;20223;-68
2021/07/23 01:39:16;;;;;;;5.80;4.28;;;19.50;99.90;;;;;;5010090;28;20202;-68
2021/07/23 01:41:45;;;;;;;6.00;4.05;;;19.50;99.90;;;;;;5026036;28;20249;-68
2021/07/23 01:44:12;;;;;;;5.15;4.25;;;19.40;99.90;;;;;;5026313;28;20213;-68
2021/07/23 01:46:40;;;;;;;6.28;4.45;;;19.50;99.90;;;;;;5026300;28;20207;-67
2021/07/23 01:49:08;;;;;;;4.88;4.28;;;19.40;99.90;;;;;;5025057;28;20277;-68
2021/07/23 01:51:37;;;;;;;4.38;3.97;;;19.40;99.90;;;;;;5037745;28;20574;-68
2021/07/23 01:54:10;;;;;;;6.68;4.05;;;19.60;99.90;;;;;;5054473;28;20631;-68
2021/07/23 01:56:42;;;;;;;5.35;4.32;;;19.40;99.90;;;;;;5068969;28;20201;-68
2021/07/23 01:59:15;;;;;;;5.35;4.53;;;19.30;99.90;;;;;;5090968;28;20309;-68
2021/07/23 02:01:44;;;;;;;4.90;4.40;;;19.30;99.90;;;;;;5082941;28;20292;-68
2021/07/23 02:04:35;;;;;;;5.72;4.72;;;19.30;99.90;;;;;;5083938;28;20227;-68
2021/07/23 02:07:02;;;;;;;5.78;4.60;;;19.30;99.90;;;;;;5070725;28;20236;-68
2021/07/23 02:09:31;;;;;;;8.32;5.07;;;19.20;99.90;;;;;;5064396;28;20504;-67
2021/07/23 02:12:00;;;;;;;6.95;4.70;;;19.20;99.90;;;;;;5074822;28;20204;-68
2021/07/23 02:15:02;;;;;;;5.32;4.28;;;19.20;99.90;;;;;;5065628;28;20220;-67
2021/07/23 02:17:32;;;;;;;5.72;4.68;;;19.20;99.90;;;;;;5068015;28;20223;-68
2021/07/23 02:19:59;;;;;;;6.97;4.70;;;19.10;99.90;;;;;;5077313;28;20706;-68
2021/07/23 02:22:30;;;;;;;4.43;4.03;;;19.10;99.90;;;;;;5068779;28;20627;-67
2021/07/23 02:24:57;;;;;;;4.80;4.40;;;19.10;99.90;;;;;;5068374;28;20859;-68
2021/07/23 02:27:26;;;;;;;6.15;4.78;;;19.10;99.90;;;;;;5083299;28;20207;-67
2021/07/23 02:29:59;;;;;;;7.97;4.97;;;19.10;99.90;;;;;;5078364;28;20201;-67
2021/07/23 02:32:30;;;;;;;5.25;4.28;;;19.50;99.90;;;;;;5068773;28;20712;-67
2021/07/23 02:34:57;;;;;;;5.32;4.53;;;19.00;99.90;;;;;;5067562;28;20294;-68
2021/07/23 02:37:28;;;;;;;5.50;4.55;;;19.00;99.90;;;;;;5083985;28;20204;-68
2021/07/23 02:39:55;;;;;;;5.13;4.55;;;19.00;99.90;;;;;;5085166;28;20307;-68
2021/07/23 02:42:24;;;;;;;5.38;4.22;;;19.30;99.90;;;;;;5066691;28;20295;-67
2021/07/23 02:44:51;;;;;;;6.00;4.50;;;19.00;99.90;;;;;;5067433;28;20197;-67
2021/07/23 02:47:19;;;;;;;7.60;4.68;;;18.90;99.90;;;;;;5100522;28;20263;-67
2021/07/23 02:49:49;;;;;;;6.22;4.60;;;18.90;99.90;;;;;;5098553;28;20646;-67
2021/07/23 02:52:16;;;;;;;4.32;3.92;;;18.90;99.90;;;;;;5100572;28;20209;-68
2021/07/23 02:54:46;;;;;;;5.43;4.63;;;18.90;99.90;;;;;;5099594;28;20572;-68
2021/07/23 02:57:14;;;;;;;6.68;4.68;;;18.90;99.90;;;;;;5068154;28;20193;-68
2021/07/23 02:59:45;;;;;;;6.45;4.63;;;18.90;99.90;;;;;;5081785;28;20292;-68
2021/07/23 03:02:14;;;;;;;5.47;4.68;;;18.90;99.90;;;;;;5067207;28;20208;-67
2021/07/23 03:04:42;;;;;;;6.32;5.15;;;19.10;99.90;;;;;;5097956;28;20211;-68
2021/07/23 03:07:11;;;;;;;7.45;4.75;;;18.80;99.90;;;;;;5094983;28;20194;-67
2021/07/23 03:09:39;;;;;;;5.85;4.47;;;18.80;99.90;;;;;;5055972;28;20228;-68
2021/07/23 03:12:07;;;;;;;5.35;4.72;;;18.80;99.90;;;;;;5089158;28;20287;-67
2021/07/23 03:14:39;;;;;;;6.75;4.70;;;18.80;99.90;;;;;;5065956;28;20756;-68
2021/07/23 03:17:12;;;;;;;8.40;4.72;;;19.30;99.90;;;;;;5099947;28;20704;-67
2021/07/23 03:19:40;;;;;;;4.80;4.28;;;18.80;99.90;;;;;;5061742;28;20223;-68
2021/07/23 03:22:08;;;;;;;7.72;4.50;;;18.80;99.90;;;;;;5067130;28;20565;-67
2021/07/23 03:24:41;;;;;;;5.63;4.72;;;18.70;99.90;;;;;;5099503;28;20200;-68
2021/07/23 03:27:10;;;;;;;5.10;4.60;;;18.70;99.90;;;;;;5100100;28;20205;-67
2021/07/23 03:29:48;;;;;;;6.30;4.60;;;18.70;99.90;;;;;;5099869;28;20209;-67
2021/07/23 03:32:15;;;;;;;5.68;4.45;;;19.40;99.90;;;;;;5100732;28;20680;-68
2021/07/23 03:34:42;;;;;;;5.03;4.25;;;18.80;99.90;;;;;;5097838;28;20220;-68
2021/07/23 03:37:21;;;;;;;4.75;4.30;;;18.70;99.90;;;;;;5066635;28;20197;-68
2021/07/23 03:39:58;;;;;;;4.88;4.38;;;18.70;99.90;;;;;;5063350;28;20197;-68
2021/07/23 03:42:33;;;;;;;6.75;4.93;;;18.80;99.90;;;;;;5082901;28;20219;-68
2021/07/23 03:45:16;;;;;;;5.28;4.22;;;18.80;99.90;;;;;;5066822;28;20224;-68
2021/07/23 03:47:47;;;;;;;4.50;4.10;;;18.70;99.90;;;;;;5061243;28;20284;-68
2021/07/23 03:50:15;;;;;;;6.70;4.40;;;18.80;99.90;;;;;;5059534;28;20220;-68
2021/07/23 03:52:52;;;;;;;5.93;4.67;;;18.80;99.90;;;;;;5069749;28;20212;-68
2021/07/23 03:55:44;;;;;;;6.63;4.35;;;18.80;99.90;;;;;;5068944;28;20208;-68
2021/07/23 03:58:16;;;;;;;4.95;4.20;;;18.80;99.90;;;;;;5103500;28;20677;-68
2021/07/23 04:00:44;;;;;;;4.97;4.47;;;18.80;99.90;;;;;;5059216;28;20189;-69
2021/07/23 04:03:12;;;;;;;4.55;4.00;;;18.90;99.90;;;;;;5069764;28;20691;-68
2021/07/23 04:05:39;;;;;;;6.93;4.90;;;18.90;99.90;;;;;;5069442;28;20194;-68
2021/07/23 04:08:07;;;;;;;7.25;4.80;;;18.90;99.90;;;;;;5103206;28;20673;-68
2021/07/23 04:10:38;;;;;;;5.55;3.90;;;18.90;99.90;;;;;;5062723;28;20198;-68
2021/07/23 04:13:07;;;;;;;5.72;4.43;;;18.90;99.90;;;;;;5064083;28;20270;-69
2021/07/23 04:15:41;;;;;;;3.90;3.50;;;18.90;99.90;;;;;;5057985;28;20204;-68
2021/07/23 04:18:16;;;;;;;5.45;4.20;;;19.00;99.90;;;;;;5098167;27;20703;-68
2021/07/23 04:21:06;;;;;;;4.80;3.80;;;20.10;99.90;;;;;;5062409;28;20222;-68
2021/07/23 04:23:35;;;;;;;6.38;3.75;;;19.00;99.90;;;;;;5066623;28;20387;-68
2021/07/23 04:26:03;;;;;;;4.60;3.80;;;19.10;99.90;;;;;;5082292;28;20646;-68
2021/07/23 04:28:34;;;;;;;4.38;3.17;;;19.10;99.90;;;;;;5103007;28;20281;-68
2021/07/23 04:31:02;;;;;;;3.22;2.80;;;19.20;99.90;;;;;;5060240;28;20282;-68
2021/07/23 04:33:53;;;;;;;4.18;3.72;;;19.20;99.90;;;;;;5069635;28;20216;-67
2021/07/23 04:36:35;;;;;;;5.05;3.60;;;19.30;99.90;;;;;;5069015;28;20205;-67
2021/07/23 04:39:13;;;;;;;3.75;3.25;;;19.30;99.90;;;;;;5099798;28;20212;-68
2021/07/23 04:41:41;;;;;;;3.97;3.50;;;19.30;99.90;;;;;;5103366;28;20216;-68
2021/07/23 04:44:11;;;;;;;5.60;3.95;;;19.40;99.90;;;;;;5102614;28;20688;-67
2021/07/23 04:46:42;;;;;;;3.88;3.20;;;19.40;99.90;;;;;;5068236;28;20248;-68
2021/07/23 04:49:09;;;;;;;7.47;3.70;;;19.50;99.90;;;;;;5065159;28;20193;-68
2021/07/23 04:51:40;;;;;;;5.03;3.40;;;19.50;99.90;;;;;;5050422;28;20289;-68
2021/07/23 04:54:25;;;;;;;4.90;3.55;;;19.60;99.90;;;;;;5060772;28;20244;-68
2021/07/23 04:57:14;;;;;;;3.08;2.88;;;19.60;99.90;;;;;;5065502;28;20217;-68
2021/07/23 04:59:44;;;;;;;6.43;3.15;;;19.70;99.90;;;;;;5090220;28;20213;-68
2021/07/23 05:02:11;;;;;;;2.50;2.30;;;19.80;99.90;;;;;;5069281;28;20730;-68
2021/07/23 05:04:38;;;;;;;4.00;2.75;;;19.80;99.90;;;;;;5087880;28;20688;-69
2021/07/23 05:07:05;;;;;;;5.38;2.67;;;19.90;99.90;;;;;;5065905;28;20280;-68
2021/07/23 05:09:33;;;;;;;5.10;2.80;;;20.00;99.90;;;;;;5067988;28;20209;-68
2021/07/23 05:12:02;;;;;;;3.83;2.63;;;20.10;99.90;;;;;;5085113;28;20228;-68
2021/07/23 05:14:31;;;;;;;3.85;2.30;;;20.10;99.90;;;;;;5069161;28;20213;-68
2021/07/23 05:16:59;;;;;;;6.68;2.70;;;20.20;99.90;;;;;;5068687;28;20313;-68
2021/07/23 05:19:27;;;;;;;2.53;2.22;;;20.40;99.90;;;;;;5068668;28;20201;-69
2021/07/23 05:21:54;;;;;;;3.92;1.98;;;20.40;99.90;;;;;;5101181;28;20205;-68
2021/07/23 05:24:22;;;;;;;2.53;2.30;;;20.40;99.90;;;;;;5068967;28;20189;-68
2021/07/23 05:26:48;;;;;;;2.78;2.10;;;20.50;99.90;;;;;;5068636;28;20192;-68
2021/07/23 05:29:15;;;;;;;1.67;1.52;;;20.60;99.90;;;;;;5069184;28;20189;-68
2021/07/23 05:31:42;;;;;;;2.70;1.60;;;20.70;99.90;;;;;;5067533;28;20619;-69
2021/07/23 05:34:11;;;;;;;2.45;1.95;;;20.80;99.90;;;;;;5066288;28;20597;-68
2021/07/23 05:36:37;;;;;;;2.58;1.88;;;20.90;99.90;;;;;;5068634;28;20200;-68
2021/07/23 05:39:04;;;;;;;1.70;1.60;;;21.00;99.90;;;;;;5068425;28;20316;-68
2021/07/23 05:41:31;;;;;;;2.70;1.98;;;21.10;99.90;;;;;;5055589;28;20204;-68
2021/07/23 05:43:58;;;;;;;1.83;1.73;;;21.30;99.90;;;;;;5082698;28;20201;-68
2021/07/23 05:46:26;;;;;;;1.90;1.50;;;21.40;99.90;;;;;;5058107;28;20196;-68
2021/07/23 05:48:53;;;;;;;1.70;1.60;;;21.50;99.90;;;;;;5053319;28;20229;-68
2021/07/23 05:51:21;;;;;;;1.60;1.50;;;21.80;99.90;;;;;;5060602;28;20197;-68
2021/07/23 05:53:48;;;;;;;4.82;1.48;;;21.90;99.90;;;;;;5063360;28;20681;-68
2021/07/23 05:56:15;;;;;;;1.30;1.20;;;22.00;99.90;;;;;;5046639;28;20210;-68
2021/07/23 05:58:42;;;;;;;3.30;1.30;;;22.10;99.90;;;;;;5057805;28;20541;-69
2021/07/23 06:01:09;;;;;;;2.20;1.52;;;22.30;99.90;;;;;;5061097;28;20270;-69
2021/07/23 06:03:37;;;;;;;3.63;1.58;;;22.50;99.90;;;;;;5063595;28;20197;-68
2021/07/23 06:06:04;;;;;;;1.50;1.40;;;22.60;99.90;;;;;;5062188;28;20364;-69
2021/07/23 06:08:33;;;;;;;1.35;1.25;;;23.20;99.90;;;;;;5063315;28;20209;-68
2021/07/23 06:11:05;;;;;;;1.30;1.30;;;24.70;99.90;;;;;;5064024;28;20266;-69
2021/07/23 06:13:32;;;;;;;1.38;1.23;;;26.50;99.00;;;;;;5063461;28;20233;-68
2021/07/23 06:16:02;;;;;;;1.30;1.20;;;28.10;95.30;;;;;;5063966;28;20197;-69
2021/07/23 06:18:29;;;;;;;1.25;1.20;;;29.50;91.80;;;;;;5059545;28;20201;-69
2021/07/23 06:20:56;;;;;;;1.20;1.10;;;30.80;87.30;;;;;;5061289;28;20201;-69
2021/07/23 06:23:23;;;;;;;2.78;1.65;;;31.80;81.40;;;;;;5060508;28;20209;-70
2021/07/23 06:25:51;;;;;;;4.35;1.15;;;32.70;75.30;;;;;;5062766;28;20197;-69
2021/07/23 06:28:18;;;;;;;1.50;1.10;;;33.40;71.30;;;;;;5064626;28;20641;-68
2021/07/23 06:30:45;;;;;;;3.55;1.23;;;34.00;67.90;;;;;;5057586;28;20280;-69
2021/07/23 06:33:12;;;;;;;1.10;1.10;;;34.40;65.00;;;;;;5056708;28;20508;-69
2021/07/23 06:35:39;;;;;;;1.90;1.38;;;34.90;62.80;;;;;;5063937;28;20216;-69
2021/07/23 06:38:06;;;;;;;1.52;1.42;;;35.30;60.60;;;;;;5064871;28;20726;-68
2021/07/23 06:40:33;;;;;;;1.85;1.38;;;35.40;58.80;;;;;;5059304;28;20554;-69
2021/07/23 06:43:01;;;;;;;1.58;1.00;;;35.50;57.70;;;;;;5065363;28;20287;-69
2021/07/23 06:45:28;;;;;;;2.20;1.25;;;35.40;57.10;;;;;;5063038;28;20185;-70
2021/07/23 06:47:55;;;;;;;1.77;1.30;;;35.20;56.30;;;;;;5054174;28;20247;-70
2021/07/23 06:50:22;;;;;;;1.42;1.25;;;35.00;55.60;;;;;;5063546;28;20197;-68
2021/07/23 06:52:49;;;;;;;1.92;1.30;;;34.80;55.60;;;;;;5064027;28;20228;-67
2021/07/23 06:55:16;;;;;;;2.83;1.50;;;34.70;55.20;;;;;;5064364;28;20207;-66
2021/07/23 06:57:43;;;;;;;1.40;1.30;;;34.60;54.50;;;;;;5063465;28;20201;-66
2021/07/23 07:00:12;;;;;;;1.33;1.20;;;34.60;54.20;;;;;;5063662;28;20618;-67
2021/07/23 07:02:39;;;;;;;2.60;1.20;;;34.70;54.10;;;;;;5058154;28;20231;-67
2021/07/23 07:05:07;;;;;;;3.03;1.40;;;34.70;53.80;;;;;;5060764;28;20198;-67
2021/07/23 07:07:34;;;;;;;2.22;1.30;;;34.80;53.50;;;;;;5061941;28;20197;-68
2021/07/23 07:10:01;;;;;;;2.35;1.55;;;34.90;53.10;;;;;;5060888;28;20193;-69
2021/07/23 07:12:28;;;;;;;1.58;1.42;;;34.90;52.60;;;;;;5097650;28;20233;-68
2021/07/23 07:14:55;;;;;;;1.50;1.40;;;34.90;52.30;;;;;;5058447;28;20205;-69
2021/07/23 07:17:28;;;;;;;2.17;1.48;;;35.00;52.00;;;;;;5091141;28;20508;-68
2021/07/23 07:19:57;;;;;;;1.50;1.40;;;35.00;51.60;;;;;;5065185;28;20201;-68
2021/07/23 07:22:24;;;;;;;1.85;1.40;;;35.10;51.10;;;;;;5100469;28;20213;-68
2021/07/23 07:24:52;;;;;;;1.60;1.50;;;35.20;50.90;;;;;;5061968;28;20201;-67
2021/07/23 07:27:19;;;;;;;1.63;1.52;;;35.10;50.60;;;;;;5057811;28;20217;-67
2021/07/23 07:29:46;;;;;;;3.60;1.40;;;35.10;50.40;;;;;;5067966;28;20581;-68
2021/07/23 07:32:13;;;;;;;2.08;1.70;;;35.00;50.10;;;;;;5063814;28;20219;-67
2021/07/23 07:34:41;;;;;;;1.77;1.25;;;34.80;49.80;;;;;;5061687;28;20239;-67
2021/07/23 07:37:08;;;;;;;3.17;1.60;;;34.60;49.90;;;;;;5068492;28;20202;-68
2021/07/23 07:39:35;;;;;;;2.25;1.45;;;34.30;50.00;;;;;;5067392;28;20201;-68
2021/07/23 07:42:02;;;;;;;2.28;1.63;;;33.80;50.30;;;;;;5062568;28;20201;-67
2021/07/23 07:44:30;;;;;;;1.73;1.63;;;33.40;50.10;;;;;;5060612;28;20561;-68
2021/07/23 07:46:57;;;;;;;2.33;1.60;;;32.80;50.70;;;;;;5061825;28;20193;-68
2021/07/23 07:49:23;;;;;;;1.48;1.48;;;32.50;51.10;;;;;;5063979;28;20197;-68
2021/07/23 07:51:52;;;;;;;1.90;1.67;;;32.20;51.40;;;;;;5063130;28;20206;-68
2021/07/23 07:54:19;;;;;;;2.83;1.58;;;31.90;51.90;;;;;;5064977;28;20314;-68
2021/07/23 07:56:46;;;;;;;1.83;1.67;;;31.70;52.60;;;;;;5067532;28;20201;-68
2021/07/23 07:59:13;;;;;;;1.70;1.60;;;31.50;52.20;;;;;;5064233;28;20224;-67
2021/07/23 08:01:40;;;;;;;2.67;1.63;;;31.40;52.00;;;;;;5064991;28;20527;-68
2021/07/23 08:04:06;;;;;;;1.65;1.55;;;31.20;52.20;;;;;;5066767;28;20207;-67
2021/07/23 08:06:36;;;;;;;3.13;1.90;;;31.10;51.90;;;;;;5063057;28;20240;-68
2021/07/23 08:09:08;;;;;;;2.42;2.22;;;31.00;52.40;;;;;;5061760;28;20679;-68
2021/07/23 08:11:35;;;;;;;1.70;1.60;;;30.90;51.70;;;;;;5065351;28;20205;-67
2021/07/23 08:14:03;;;;;;;2.33;1.90;;;30.80;51.90;;;;;;5101171;28;20296;-67
2021/07/23 08:16:31;;;;;;;2.10;2.00;;;30.70;52.20;;;;;;5067066;28;20685;-67
2021/07/23 08:19:00;;;;;;;1.77;1.65;;;30.70;52.00;;;;;;5065343;28;20212;-67
2021/07/23 08:21:30;;;;;;;1.73;1.63;;;30.70;52.40;;;;;;5064802;28;20240;-67
2021/07/23 08:23:58;;;;;;;3.35;1.80;;;30.70;52.70;;;;;;5065446;28;20201;-67
2021/07/23 08:26:26;;;;;;;1.83;1.73;;;30.70;52.60;;;;;;5067213;28;20308;-67
2021/07/23 08:28:53;;;;;;;2.60;1.60;;;30.80;52.50;;;;;;5061788;28;20438;-67
2021/07/23 08:31:21;;;;;;;1.95;1.67;;;30.90;52.50;;;;;;5061233;28;20201;-67
2021/07/23 08:33:48;;;;;;;1.73;1.60;;;31.00;52.50;;;;;;5067294;28;20209;-67
2021/07/23 08:36:15;;;;;;;2.58;2.38;;;31.20;51.90;;;;;;5096458;28;20221;-67
2021/07/23 08:38:42;;;;;;;2.47;2.05;;;31.50;51.60;;;;;;5062869;28;20549;-67
2021/07/23 08:41:11;;;;;;;2.10;2.00;;;31.70;50.80;;;;;;5063317;28;20233;-67
2021/07/23 08:43:40;;;;;;;1.83;1.67;;;32.10;50.30;;;;;;5066919;28;20213;-67
2021/07/23 08:46:08;;;;;;;2.15;1.95;;;32.60;49.90;;;;;;5066100;28;20208;-67
2021/07/23 08:48:35;;;;;;;2.10;2.00;;;33.30;49.30;;;;;;5065628;28;20492;-67
2021/07/23 08:51:02;;;;;;;1.80;1.70;;;34.10;48.50;;;;;;5066258;28;20212;-67
2021/07/23 08:53:29;;;;;;;1.90;1.80;;;35.00;48.10;;;;;;5066594;28;20197;-67
2021/07/23 08:55:56;;;;;;;2.40;2.10;;;36.20;45.90;;;;;;5063678;28;20256;-67
2021/07/23 08:58:23;;;;;;;2.17;2.00;;;37.30;44.40;;;;;;5065608;28;20201;-67
2021/07/23 09:00:57;;;;;;;2.47;2.38;;;38.30;43.00;;;;;;5063608;28;20201;-67
2021/07/23 09:03:27;;;;;;;2.70;2.10;;;39.10;41.20;;;;;;5064898;28;20292;-67
2021/07/23 09:05:54;;;;;;;2.10;2.00;;;39.90;40.10;;;;;;5063941;28;20193;-68
2021/07/23 09:08:22;;;;;;;2.47;2.38;;;40.80;39.10;;;;;;5059673;28;20215;-68
2021/07/23 09:11:04;;;;;;;2.42;2.33;;;41.30;38.10;;;;;;5065674;28;20711;-68
2021/07/23 09:13:31;;;;;;;3.60;2.55;;;41.50;37.10;;;;;;5062500;28;20224;-68
2021/07/23 09:15:59;;;;;;;2.80;2.28;;;41.70;36.00;;;;;;5063610;28;20213;-67
2021/07/23 09:18:29;;;;;;;2.15;2.05;;;42.20;35.40;;;;;;5059282;28;20684;-66
2021/07/23 09:20:57;;;;;;;2.40;2.20;;;42.60;35.40;;;;;;5056808;28;20232;-66
2021/07/23 09:23:29;;;;;;;3.45;2.55;;;42.10;34.30;;;;;;5065312;28;20193;-67
2021/07/23 09:25:57;;;;;;;2.35;2.25;;;42.30;33.70;;;;;;5093503;28;20237;-67
2021/07/23 09:28:34;;;;;;;2.33;2.22;;;43.00;33.10;;;;;;5056133;28;20431;-65
2021/07/23 09:31:03;;;;;;;2.42;2.33;;;43.40;32.00;;;;;;5091964;28;20205;-66
2021/07/23 09:33:34;;;;;;;2.47;2.38;;;44.30;31.50;;;;;;5057774;28;20197;-66
2021/07/23 09:36:03;;;;;;;2.55;2.40;;;44.80;30.70;;;;;;5065610;28;20304;-66
2021/07/23 09:38:38;;;;;;;2.30;2.20;;;45.20;30.00;;;;;;5064408;28;20238;-67
2021/07/23 09:41:09;;;;;;;2.47;2.38;;;45.80;29.60;;;;;;5060502;28;20918;-67
2021/07/23 09:43:38;;;;;;;2.53;2.42;;;45.10;29.00;;;;;;5060546;28;20507;-66
2021/07/23 09:46:29;;;;;;;2.40;2.30;;;44.70;29.10;;;;;;5068814;28;20194;-68
2021/07/23 09:48:59;;;;;;;3.42;2.50;;;45.40;28.80;;;;;;5057615;28;20426;-66
2021/07/23 09:51:27;;;;;;;2.92;2.78;;;46.00;28.30;;;;;;5063942;28;20625;-66
2021/07/23 09:53:56;;;;;;;2.72;2.63;;;46.40;28.00;;;;;;5058933;28;20557;-66
2021/07/23 09:56:25;;;;;;;3.00;2.65;;;46.80;27.70;;;;;;5064236;28;20220;-66
2021/07/23 09:59:02;;;;;;;2.80;2.70;;;47.20;27.40;;;;;;5062475;28;20438;-66
2021/07/23 10:01:39;;;;;;;2.60;2.50;;;47.40;26.90;;;;;;5063681;28;20250;-66
2021/07/23 10:04:13;;;;;;;3.08;2.83;;;47.80;26.70;;;;;;5057915;28;20557;-66
2021/07/23 10:06:49;;;;;;;2.60;2.50;;;48.10;26.30;;;;;;5064034;28;20197;-66
2021/07/23 10:09:19;;;;;;;2.53;2.42;;;48.40;26.10;;;;;;5064732;28;20667;-66
2021/07/23 10:11:46;;;;;;;2.80;2.70;;;48.50;25.80;;;;;;5063204;28;20213;-66
2021/07/23 10:14:20;;;;;;;3.15;3.00;;;48.90;25.60;;;;;;5097525;27;20286;-66
2021/07/23 10:16:49;;;;;;;2.53;2.42;;;49.10;25.40;;;;;;5058213;28;20223;-66
2021/07/23 10:19:16;;;;;;;2.90;2.70;;;49.50;25.20;;;;;;5059590;28;20638;-66
2021/07/23 10:21:43;;;;;;;3.28;3.10;;;49.80;24.80;;;;;;5063739;28;20565;-65
2021/07/23 10:24:10;;;;;;;2.70;2.50;;;49.00;24.70;;;;;;5063157;28;20196;-67
2021/07/23 10:26:38;;;;;;;3.30;3.05;;;48.40;24.90;;;;;;5062699;28;20205;-66
2021/07/23 10:29:07;;;;;;;3.75;2.75;;;48.20;25.00;;;;;;5058461;28;20216;-70
2021/07/23 10:31:45;;;;;;;2.47;2.38;;;47.60;24.90;;;;;;5066715;28;20287;-70
2021/07/23 10:34:32;;;;;;;2.40;2.30;;;46.40;26.10;;;;;;5063599;28;20213;-70
2021/07/23 10:37:00;;;;;;;3.33;2.72;;;46.20;25.50;;;;;;5062801;28;20254;-77
2021/07/23 10:39:27;;;;;;;2.30;2.20;;;46.00;25.60;;;;;;5057162;28;20201;-77
2021/07/23 10:42:31;;;;;;;2.53;2.40;;;45.60;25.60;;;;;;5064046;28;20207;-77
2021/07/23 10:44:58;;;;;;;2.75;2.65;;;44.60;25.60;;;;;;5065047;28;20675;-78
2021/07/23 10:47:35;;;;;;;2.50;2.40;;;43.60;26.10;;;;;;5065544;28;20201;-78
2021/07/23 10:50:05;;;;;;;2.40;2.30;;;44.30;26.10;;;;;;5058817;28;20181;-78
2021/07/23 10:52:36;;;;;;;2.80;2.70;;;45.40;25.60;;;;;;5061036;28;20209;-78
2021/07/23 10:55:21;;;;;;;2.50;2.30;;;45.70;25.20;;;;;;5058877;28;20208;-79
2021/07/23 10:58:30;;;;;;;2.65;2.55;;;46.60;25.00;;;;;;5058209;28;20723;-78
2021/07/23 11:00:59;;;;;;;2.70;2.50;;;47.60;24.40;;;;;;5056956;28;20258;-80
2021/07/23 11:03:49;;;;;;;2.60;2.50;;;48.50;23.90;;;;;;5063506;28;20197;-79
2021/07/23 11:06:19;;;;;;;2.60;2.50;;;49.10;23.60;;;;;;5060446;28;20193;-79
2021/07/23 11:08:50;;;;;;;2.40;2.30;;;49.10;23.10;;;;;;5062417;28;20677;-78
2021/07/23 11:11:18;;;;;;;2.38;2.28;;;47.90;23.30;;;;;;5055143;28;20215;-77
2021/07/23 11:13:46;;;;;;;2.33;2.22;;;46.50;23.70;;;;;;5046128;28;20331;-84
2021/07/23 11:16:15;;;;;;;2.80;2.70;;;46.20;24.00;;;;;;5064075;28;20262;-78
2021/07/23 11:18:52;;;;;;;2.83;2.63;;;45.50;24.20;;;;;;5059926;28;20247;-87
2021/07/23 11:21:22;;;;;;;3.22;2.40;;;44.70;24.80;;;;;;5061353;28;20600;-86
2021/07/23 11:23:49;;;;;;;2.13;2.03;;;43.00;25.10;;;;;;5059909;28;20193;-85
2021/07/23 11:26:25;;;;;;;2.85;2.65;;;43.80;26.50;;;;;;5060048;28;20536;-92
2021/07/23 11:28:55;;;;;;;3.10;2.88;;;44.40;26.00;;;;;;5093946;28;20451;-91
2021/07/23 11:31:33;;;;;;;4.72;3.10;;;44.50;25.70;;;;;;5060707;28;20224;-77
2021/07/23 11:34:19;;;;;;;4.53;2.70;;;43.30;25.90;;;;;;5063390;28;20193;-82
2021/07/23 11:36:49;;;;;;;5.20;3.13;;;41.90;26.60;;;;;;5060148;28;20192;-88
2021/07/23 11:39:16;;;;;;;4.10;2.90;;;40.50;27.50;;;;;;5063635;28;20195;-89
2021/07/23 11:41:59;;;;;;;3.05;2.70;;;39.30;28.20;;;;;;5058013;28;20295;-90
2021/07/23 11:44:26;;;;;;;6.15;2.72;;;38.30;28.90;;;;;;5094350;28;20504;-90
2021/07/23 11:46:54;;;;;;;3.42;2.40;;;38.40;29.20;;;;;;5064841;28;20209;-88
2021/07/23 11:49:21;;;;;;;2.80;2.42;;;39.50;28.80;;;;;;5062465;28;20267;-86
2021/07/23 11:51:49;;;;;;;2.70;2.50;;;40.50;28.20;;;;;;5064484;28;20540;-88
2021/07/23 11:54:20;;;;;;;2.22;2.13;;;40.80;27.80;;;;;;5058574;28;20668;-78
2021/07/23 11:56:47;;;;;;;4.43;2.67;;;40.50;27.80;;;;;;5074192;28;20218;-78
2021/07/23 11:59:15;;;;;;;2.92;2.78;;;39.70;28.30;;;;;;5056476;28;20658;-77
2021/07/23 12:01:42;;;;;;;2.65;2.55;;;38.70;29.20;;;;;;5061993;28;20196;-80
2021/07/23 12:04:10;;;;;;;3.78;3.13;;;37.70;30.00;;;;;;5064603;28;20313;-78
2021/07/23 12:06:39;;;;;;;2.72;2.53;;;36.90;31.40;;;;;;5066176;28;20312;-78
2021/07/23 12:09:11;;;;;;;2.58;2.38;;;37.30;31.60;;;;;;5066264;28;20203;-79
2021/07/23 12:11:38;;;;;;;2.78;2.58;;;38.20;31.00;;;;;;5066612;28;20799;-80
2021/07/23 12:14:10;;;;;;;3.00;2.70;;;38.90;30.30;;;;;;5060030;28;20225;-78
2021/07/23 12:16:37;;;;;;;3.92;2.85;;;39.10;30.00;;;;;;5067181;28;20197;-80
2021/07/23 12:19:10;;;;;;;2.58;2.40;;;39.10;29.90;;;;;;5065660;28;20546;-78
2021/07/23 12:21:38;;;;;;;3.20;2.30;;;39.20;30.00;;;;;;5066091;28;20208;-79
2021/07/23 12:24:08;;;;;;;2.75;2.53;;;39.40;30.00;;;;;;5073135;28;20869;-78
2021/07/23 12:26:37;;;;;;;5.35;2.90;;;39.50;30.00;;;;;;5056171;28;20224;-79
2021/07/23 12:29:07;;;;;;;2.88;2.58;;;39.30;30.00;;;;;;5062487;28;20208;-80
2021/07/23 12:31:35;;;;;;;3.08;2.78;;;39.20;30.10;;;;;;5094817;28;20564;-79
2021/07/23 12:34:03;;;;;;;3.35;2.72;;;38.60;30.60;;;;;;5063088;28;20208;-79
2021/07/23 12:36:30;;;;;;;2.78;2.60;;;37.70;31.70;;;;;;5059607;28;20288;-77
2021/07/23 12:39:01;;;;;;;2.88;2.63;;;36.50;32.60;;;;;;5097361;27;20296;-78
2021/07/23 12:41:29;;;;;;;3.75;2.25;;;35.50;33.50;;;;;;5067985;28;20203;-78
2021/07/23 12:44:07;;;;;;;2.92;2.45;;;34.80;34.30;;;;;;5060117;28;20196;-79
2021/07/23 12:46:35;;;;;;;4.40;2.60;;;34.30;35.20;;;;;;5055948;28;20223;-79
2021/07/23 12:49:13;;;;;;;3.05;2.80;;;33.80;36.10;;;;;;5061276;28;20204;-79
2021/07/23 12:51:40;;;;;;;4.05;3.42;;;33.30;37.10;;;;;;5097386;28;20201;-78
2021/07/23 12:54:07;;;;;;;5.97;2.80;;;32.90;38.70;;;;;;5060859;28;20220;-78
2021/07/23 12:56:37;;;;;;;7.07;3.42;;;32.30;40.60;;;;;;5066434;28;20189;-77
2021/07/23 12:59:24;;;;;;;5.28;2.80;;;31.60;42.40;;;;;;5061433;28;20284;-79
2021/07/23 13:01:51;;;;;;;2.97;2.60;;;31.00;43.10;;;;;;5058245;28;20262;-77